Time;durP1;ratioP1;P1;durP2;ratioP2;P2;SDS_P1;SDS_P2;PMS_P1;PMS_P2;Temp;Humidity;BMP_temperature;BMP_pressure;BME280_temperature;BME280_humidity;BME280_pressure;Samples;Min_cycle;Max_cycle;Signal;HPM_P1;HPM_P2
2022/01/26 00:08:25;;;;;;;299.27;101.55;;;;;;;10.05;100.00;98767.28;4780980;29;20059;-64
2022/01/26 00:11:07;;;;;;;340.92;107.68;;;;;;;9.96;100.00;98776.09;4781091;29;20138;-64
2022/01/26 00:13:56;;;;;;;316.50;106.53;;;;;;;10.03;100.00;98780.19;4780190;29;20090;-64
2022/01/26 00:16:51;;;;;;;313.27;105.47;;;;;;;9.93;100.00;98781.28;4767779;29;20481;-64
2022/01/26 00:19:41;;;;;;;343.15;108.00;;;;;;;9.93;100.00;98791.59;4763073;30;20051;-64
2022/01/26 00:23:32;;;;;;;311.58;105.78;;;;;;;9.86;100.00;98793.47;4780181;30;20063;-65
2022/01/26 00:25:43;;;;;;;293.42;104.63;;;;;;;9.77;100.00;98782.56;4777433;30;20051;-64
2022/01/26 00:40:53;;;;;;;295.35;105.38;;;;;;;9.86;100.00;98792.63;4776256;30;20064;-64
2022/01/26 00:43:35;;;;;;;286.65;104.55;;;;;;;9.93;100.00;98795.00;4763045;30;20193;-64
2022/01/26 00:46:18;;;;;;;298.95;105.78;;;;;;;9.73;100.00;98793.84;4780306;29;20051;-64
2022/01/26 00:49:09;;;;;;;294.90;108.38;;;;;;;9.65;100.00;98786.31;4778253;30;20182;-64
2022/01/26 00:52:06;;;;;;;280.95;103.75;;;;;;;9.63;100.00;98795.78;4763777;29;20070;-64
2022/01/26 00:54:55;;;;;;;288.52;105.20;;;;;;;9.67;100.00;98796.53;4771744;29;20070;-64
2022/01/26 00:57:44;;;;;;;296.92;105.45;;;;;;;9.74;100.00;98813.50;4797589;29;20147;-64
2022/01/26 01:00:28;;;;;;;278.00;102.55;;;;;;;9.60;100.00;98801.84;4789319;29;20055;-64
2022/01/26 01:03:17;;;;;;;260.90;100.60;;;;;;;9.58;100.00;98810.47;4774192;29;20059;-64
2022/01/26 01:06:06;;;;;;;256.60;99.43;;;;;;;9.57;100.00;98812.22;4800731;29;20069;-64
2022/01/26 01:09:03;;;;;;;271.70;99.82;;;;;;;9.65;100.00;98817.16;4781427;30;20102;-64
2022/01/26 01:11:38;;;;;;;285.60;99.05;;;;;;;9.64;100.00;98806.91;4775282;30;20055;-64
2022/01/26 01:14:27;;;;;;;239.73;96.00;;;;;;;9.59;100.00;98825.84;4781223;29;20062;-64
2022/01/26 01:17:19;;;;;;;228.02;95.65;;;;;;;9.44;100.00;98815.94;4782496;29;20063;-64
2022/01/26 01:20:22;;;;;;;244.07;96.32;;;;;;;9.47;100.00;98828.72;4770646;30;20083;-64
2022/01/26 01:23:26;;;;;;;241.55;94.63;;;;;;;9.40;100.00;98824.63;4783198;29;20159;-64
2022/01/26 01:32:11;;;;;;;214.65;90.72;;;;;;;9.34;100.00;98818.78;4766072;30;20616;-64
2022/01/26 01:34:54;;;;;;;243.23;92.30;;;;;;;9.25;100.00;98824.13;4765762;30;20151;-64
2022/01/26 01:37:42;;;;;;;206.80;89.70;;;;;;;9.18;100.00;98836.22;4765410;30;20521;-64
2022/01/26 01:40:24;;;;;;;192.75;87.53;;;;;;;9.12;100.00;98837.22;4771318;29;20202;-64
2022/01/26 01:43:15;;;;;;;199.98;88.85;;;;;;;9.07;100.00;98836.50;4782391;29;20083;-64
2022/01/26 01:46:04;;;;;;;170.45;81.57;;;;;;;9.13;100.00;98835.50;4766924;30;20066;-64
2022/01/26 01:48:46;;;;;;;173.55;82.28;;;;;;;9.19;100.00;98840.50;4779897;29;20058;-64
2022/01/26 01:51:46;;;;;;;169.52;79.55;;;;;;;9.05;100.00;98848.50;4782911;29;20048;-64
2022/01/26 01:54:20;;;;;;;;;;;;;;;9.17;100.00;98850.00;4782167;29;20063;-64
2022/01/26 01:57:10;;;;;;;143.95;72.97;;;;;;;9.31;100.00;98850.53;4782573;29;20386;-63
2022/01/26 01:59:53;;;;;;;148.07;76.63;;;;;;;9.24;100.00;98856.69;4781234;29;20047;-65
2022/01/26 02:02:41;;;;;;;143.88;74.47;;;;;;;9.21;100.00;98856.75;4780629;29;20396;-64
2022/01/26 02:05:31;;;;;;;129.60;72.13;;;;;;;9.16;100.00;98866.28;4765596;29;20366;-64
2022/01/26 02:08:12;;;;;;;143.65;71.32;;;;;;;9.22;100.00;98861.00;4779018;29;20059;-64
2022/01/26 02:11:03;;;;;;;131.48;70.60;;;;;;;9.20;100.00;98870.47;4780362;29;20047;-64
2022/01/26 02:14:02;;;;;;;126.07;69.93;;;;;;;9.11;100.00;98868.09;4778266;29;20171;-64
2022/01/26 02:16:55;;;;;;;129.73;72.10;;;;;;;9.11;100.00;98880.94;4778292;29;20048;-64
2022/01/26 02:20:03;;;;;;;126.13;68.97;;;;;;;9.05;100.00;98879.34;4779099;29;20108;-65
2022/01/26 02:53:49;;;;;;;118.68;67.57;;;;;;;9.41;100.00;98916.28;4762845;30;20056;-65
2022/01/26 02:56:40;;;;;;;120.88;65.18;;;;;;;9.48;100.00;98924.72;4759030;30;20059;-65
2022/01/26 03:05:28;;;;;;;112.68;63.70;;;;;;;9.83;100.00;98926.47;4760372;30;20117;-65
2022/01/26 03:08:06;;;;;;;108.90;60.85;;;;;;;9.97;100.00;98938.16;4759511;30;20425;-65
2022/01/26 03:11:13;;;;;;;114.70;60.35;;;;;;;10.02;100.00;98945.78;4760074;30;20062;-65
2022/01/26 03:14:06;;;;;;;115.10;61.70;;;;;;;10.13;100.00;98958.41;4760606;30;20074;-65
2022/01/26 03:17:01;;;;;;;123.95;64.20;;;;;;;10.29;100.00;98963.19;4762840;30;20086;-65
2022/01/26 03:19:49;;;;;;;115.18;64.13;;;;;;;10.38;100.00;98961.25;4760031;30;20525;-65
2022/01/26 03:28:57;;;;;;;102.55;58.33;;;;;;;11.30;100.00;98970.81;4761189;30;20044;-65
2022/01/26 03:34:33;;;;;;;105.78;57.60;;;;;;;11.75;100.00;98979.81;4745563;30;20062;-65
2022/01/26 03:37:37;;;;;;;106.32;57.72;;;;;;;12.01;100.00;98989.34;4762668;30;20048;-66
2022/01/26 03:40:15;;;;;;;98.05;58.13;;;;;;;12.22;100.00;98990.41;4763354;30;20120;-65
2022/01/26 03:43:10;;;;;;;112.28;59.10;;;;;;;12.48;100.00;99000.75;4763582;30;20129;-66
2022/01/26 03:45:45;;;;;;;106.07;56.88;;;;;;;12.72;100.00;99001.69;4763070;30;20048;-65
2022/01/26 03:48:35;;;;;;;100.35;55.80;;;;;;;12.93;100.00;98989.78;4763091;30;20055;-65
2022/01/26 03:51:24;;;;;;;103.78;57.70;;;;;;;12.92;100.00;99003.63;4760959;29;20719;-65
2022/01/26 03:54:13;;;;;;;103.60;55.58;;;;;;;13.61;100.00;99009.78;4770420;29;20065;-65
2022/01/26 03:56:54;;;;;;;105.85;56.15;;;;;;;13.73;100.00;99004.13;4781339;29;20059;-65
2022/01/26 03:59:42;;;;;;;106.10;56.60;;;;;;;13.81;100.00;99007.28;4778766;29;20055;-65
2022/01/26 04:02:36;;;;;;;110.93;58.50;;;;;;;13.96;100.00;99004.13;4779701;30;20438;-65
2022/01/26 04:05:12;;;;;;;110.90;61.25;;;;;;;14.16;100.00;99004.19;4778052;29;20442;-65
2022/01/26 04:08:13;;;;;;;109.63;62.35;;;;;;;14.37;100.00;99004.22;4779901;29;20059;-66
2022/01/26 04:13:36;;;;;;;122.05;74.95;;;;;;;14.63;100.00;99014.44;4780002;29;20063;-65
2022/01/26 04:16:18;;;;;;;153.38;81.53;;;;;;;14.72;100.00;99014.06;4769503;30;20051;-65
2022/01/26 04:19:08;;;;;;;173.15;96.30;;;;;;;14.80;100.00;99024.94;4780501;29;20158;-65
2022/01/26 04:22:16;;;;;;;198.02;104.53;;;;;;;14.92;100.00;99027.00;4779360;29;20087;-65
2022/01/26 04:25:18;;;;;;;203.20;103.50;;;;;;;15.05;100.00;99037.75;4778809;29;20400;-65
2022/01/26 04:27:57;;;;;;;175.85;96.82;;;;;;;15.08;100.00;99041.97;4778328;29;20055;-65
2022/01/26 04:30:52;;;;;;;174.40;92.82;;;;;;;14.78;100.00;99044.91;4779078;30;20078;-65
2022/01/26 04:33:29;;;;;;;163.93;90.45;;;;;;;15.18;100.00;99043.25;4779786;30;20055;-65
2022/01/26 04:36:27;;;;;;;160.32;88.63;;;;;;;15.55;100.00;99038.19;4779157;29;20062;-65
2022/01/26 04:39:21;;;;;;;152.95;89.90;;;;;;;15.18;100.00;99051.88;4779499;29;20139;-65
2022/01/26 04:42:10;;;;;;;153.80;87.97;;;;;;;15.43;100.00;99037.81;4778296;30;20065;-65
2022/01/26 04:45:03;;;;;;;163.15;86.40;;;;;;;15.28;100.00;99042.78;4778303;30;20085;-65
2022/01/26 04:47:44;;;;;;;135.48;81.20;;;;;;;15.15;100.00;99046.81;4777943;30;20146;-65
2022/01/26 04:50:32;;;;;;;149.60;81.88;;;;;;;15.53;100.00;99045.19;4773851;29;20051;-65
2022/01/26 04:53:28;;;;;;;142.88;80.60;;;;;;;15.62;100.00;99049.13;4763281;29;20055;-65
2022/01/26 04:56:03;;;;;;;136.85;84.03;;;;;;;16.11;100.00;99052.09;4761400;29;20085;-65
2022/01/26 04:58:57;;;;;;;158.02;89.25;;;;;;;15.72;100.00;99059.97;4777712;29;20051;-63
2022/01/26 05:01:32;;;;;;;173.60;95.32;;;;;;;15.88;100.00;99055.75;4776513;29;20150;-65
2022/01/26 05:04:28;;;;;;;176.80;96.63;;;;;;;15.55;100.00;99058.97;4771981;29;20055;-65
2022/01/26 05:07:04;;;;;;;193.32;102.63;;;;;;;15.42;100.00;99062.94;4778658;29;20059;-65
2022/01/26 05:10:02;;;;;;;184.57;100.43;;;;;;;15.43;100.00;99059.44;4774798;29;20480;-64
2022/01/26 05:12:38;;;;;;;213.57;112.95;;;;;;;15.23;100.00;99064.66;4779865;29;20492;-66
2022/01/26 05:15:34;;;;;;;;;;;;;;;14.97;100.00;99070.94;4780316;29;20181;-65
2022/01/26 05:18:11;;;;;;;240.30;119.90;;;;;;;14.85;100.00;99067.09;4779333;29;19998;-66
2022/01/26 05:20:58;;;;;;;241.18;121.18;;;;;;;14.71;100.00;99072.00;4778775;29;20052;-65
2022/01/26 05:23:41;;;;;;;224.75;117.30;;;;;;;14.82;100.00;99072.44;4774922;29;20166;-65
2022/01/26 05:26:37;;;;;;;222.52;118.30;;;;;;;14.83;100.00;99076.72;4782548;29;20055;-65
2022/01/26 05:29:17;;;;;;;254.48;122.55;;;;;;;14.97;100.00;99080.47;4752144;30;20443;-66
2022/01/26 05:32:14;;;;;;;239.45;127.13;;;;;;;14.86;100.00;99078.31;4769523;30;20055;-65
2022/01/26 05:34:50;;;;;;;244.93;129.18;;;;;;;15.68;100.00;99078.28;4761822;30;20055;-66
2022/01/26 05:37:48;;;;;;;261.38;129.43;;;;;;;15.48;100.00;99073.09;4779433;29;20047;-65
2022/01/26 05:40:23;;;;;;;250.73;126.97;;;;;;;15.54;100.00;99070.25;4772680;29;20055;-66
2022/01/26 05:43:17;;;;;;;248.98;127.80;;;;;;;15.61;100.00;99068.22;4777997;29;20103;-65
2022/01/26 05:45:56;;;;;;;261.95;132.50;;;;;;;16.18;100.00;99064.75;4791243;29;20047;-65
2022/01/26 05:48:46;;;;;;;226.35;121.85;;;;;;;16.30;100.00;99071.94;4789898;29;20491;-64
2022/01/26 05:51:31;;;;;;;249.65;126.63;;;;;;;17.08;100.00;99079.44;4783728;29;20054;-65
2022/01/26 05:54:19;;;;;;;221.93;122.00;;;;;;;17.00;100.00;99081.59;4783078;29;20066;-65
2022/01/26 05:57:02;;;;;;;215.60;118.50;;;;;;;16.77;100.00;99079.28;4786769;29;20058;-64
2022/01/26 05:59:53;;;;;;;181.18;100.53;;;;;;;17.27;93.94;99083.72;4785214;29;20086;-65
2022/01/26 06:02:41;;;;;;;175.52;94.32;;;;;;;16.94;92.26;99081.88;4777919;29;20073;-66
2022/01/26 06:05:31;;;;;;;191.23;94.70;;;;;;;17.01;91.79;99079.81;4779334;29;20134;-65
2022/01/26 06:08:13;;;;;;;176.63;95.25;;;;;;;17.60;92.70;99080.25;4787839;29;20700;-65
2022/01/26 06:11:03;;;;;;;183.68;97.05;;;;;;;17.34;89.40;99085.09;4783923;29;20139;-65
2022/01/26 06:13:46;;;;;;;177.85;98.57;;;;;;;17.51;88.83;99082.47;4775727;29;20098;-63
2022/01/26 06:16:33;;;;;;;167.60;97.95;;;;;;;17.78;90.77;99081.09;4773684;29;20062;-65
2022/01/26 06:19:16;;;;;;;170.07;96.40;;;;;;;17.52;89.82;99084.16;4777563;29;20044;-65
2022/01/26 06:22:04;;;;;;;159.30;89.75;;;;;;;17.06;84.21;99076.09;4772827;30;20059;-65
2022/01/26 06:24:47;;;;;;;151.48;82.38;;;;;;;17.19;87.69;99079.75;4780054;29;20058;-64
2022/01/26 06:27:37;;;;;;;147.18;71.57;;;;;;;17.20;88.67;99075.38;4773988;30;20044;-63
2022/01/26 06:30:27;;;;;;;151.20;80.82;;;;;;;17.68;89.98;99074.66;4781372;29;20069;-64
2022/01/26 06:33:08;;;;;;;153.23;81.60;;;;;;;17.67;88.82;99064.31;4780629;29;20055;-64
2022/01/26 06:35:59;;;;;;;179.68;98.97;;;;;;;17.73;83.05;99070.03;4780700;29;20075;-64
2022/01/26 06:38:53;;;;;;;160.23;79.57;;;;;;;17.46;85.56;99061.03;4781729;29;20074;-64
2022/01/26 06:41:29;;;;;;;164.45;91.65;;;;;;;17.04;86.89;99056.25;4779019;29;20128;-64
2022/01/26 06:44:28;;;;;;;200.87;103.63;;;;;;;17.33;92.18;99046.94;4779967;29;20052;-65
2022/01/26 06:49:57;;;;;;;204.70;106.72;;;;;;;16.41;100.00;99028.09;4776405;29;20144;-64
2022/01/26 06:52:52;;;;;;;220.38;110.30;;;;;;;16.77;100.00;99037.63;4773031;29;20055;-64
2022/01/26 06:55:37;;;;;;;233.77;118.20;;;;;;;16.73;100.00;99034.38;4776002;29;20059;-64
2022/01/26 06:58:31;;;;;;;234.93;122.00;;;;;;;16.77;100.00;99022.03;4774020;29;20153;-64
2022/01/26 07:01:07;;;;;;;387.80;188.23;;;;;;;16.33;100.00;99009.41;4774555;29;20729;-64
2022/01/26 07:03:56;;;;;;;421.13;206.40;;;;;;;16.70;100.00;99016.28;4774465;29;20059;-64
2022/01/26 07:06:39;;;;;;;447.58;222.73;;;;;;;16.71;100.00;99011.94;4772851;30;20052;-64
2022/01/26 07:09:34;;;;;;;455.15;235.18;;;;;;;16.68;100.00;99009.50;4779480;29;20055;-64
2022/01/26 07:12:25;;;;;;;456.30;229.65;;;;;;;16.64;100.00;99002.75;4770952;30;20146;-63
2022/01/26 07:21:28;;;;;;;362.25;169.98;;;;;;;16.84;98.41;99000.00;4779194;29;20108;-64
2022/01/26 07:24:09;;;;;;;275.63;138.45;;;;;;;16.99;96.58;99001.00;4782781;29;20148;-63
2022/01/26 07:26:59;;;;;;;218.27;107.43;;;;;;;17.16;94.36;98996.59;4773599;29;20088;-63
2022/01/26 07:29:40;;;;;;;199.95;100.60;;;;;;;17.28;91.31;98992.50;4775282;29;20048;-65
2022/01/26 07:32:30;;;;;;;170.73;91.53;;;;;;;17.29;92.08;98999.41;4774582;30;20780;-65
2022/01/26 07:35:13;;;;;;;153.75;78.18;;;;;;;17.57;89.24;98988.34;4771998;30;20047;-64
2022/01/26 07:38:03;;;;;;;151.13;77.88;;;;;;;17.51;86.09;98991.28;4777584;30;20158;-64
2022/01/26 07:40:44;;;;;;;153.63;77.00;;;;;;;17.73;84.75;98978.81;4776547;29;20097;-64
2022/01/26 07:43:33;;;;;;;151.30;78.28;;;;;;;18.22;88.46;98976.97;4779120;29;20104;-64
2022/01/26 07:46:17;;;;;;;141.93;69.80;;;;;;;18.23;81.64;98980.41;4781099;29;20058;-64
2022/01/26 07:49:06;;;;;;;92.40;47.67;;;;;;;18.23;78.03;98977.81;4779926;29;20086;-64
2022/01/26 07:51:49;;;;;;;93.82;47.13;;;;;;;18.34;73.41;98975.44;4784903;29;20047;-64
2022/01/26 07:54:37;;;;;;;102.72;53.85;;;;;;;18.32;77.20;98972.06;4777089;29;20058;-64
2022/01/26 07:57:20;;;;;;;86.82;49.47;;;;;;;18.22;75.91;98960.47;4775156;29;20474;-64
2022/01/26 08:00:12;;;;;;;76.20;40.90;;;;;;;18.35;68.88;98964.94;4777524;29;20058;-65
2022/01/26 08:02:53;;;;;;;81.60;41.95;;;;;;;18.26;68.51;98957.63;4781137;29;20059;-65
2022/01/26 08:05:43;;;;;;;76.00;42.05;;;;;;;18.30;70.95;98958.25;4782157;29;20046;-65
2022/01/26 08:08:26;;;;;;;97.80;47.60;;;;;;;18.10;70.74;98950.75;4777863;29;20062;-65
2022/01/26 08:11:15;;;;;;;88.60;43.35;;;;;;;18.09;68.75;98949.91;4776720;29;20120;-64
2022/01/26 08:13:58;;;;;;;92.67;42.77;;;;;;;18.20;69.61;98941.44;4775136;29;20058;-66
2022/01/26 08:16:47;;;;;;;83.85;40.80;;;;;;;18.27;71.24;98945.41;4782282;29;20286;-65
2022/01/26 08:19:29;;;;;;;89.53;44.42;;;;;;;18.33;72.98;98938.06;4775972;29;20120;-66
2022/01/26 08:22:20;;;;;;;84.10;43.83;;;;;;;18.39;69.15;98939.47;4763482;29;20143;-66
2022/01/26 08:25:01;;;;;;;93.28;46.08;;;;;;;18.31;71.29;98933.88;4781955;29;20126;-65
2022/01/26 08:28:12;;;;;;;83.90;42.63;;;;;;;18.18;71.05;98928.53;4767247;29;20154;-65
2022/01/26 08:30:54;;;;;;;89.63;46.50;;;;;;;18.15;73.10;98920.03;4777457;29;20054;-65
2022/01/26 08:33:46;;;;;;;93.88;50.78;;;;;;;18.03;75.36;98918.13;4780648;29;20065;-66
2022/01/26 08:36:28;;;;;;;112.78;56.15;;;;;;;17.92;78.14;98916.94;4778745;29;20124;-66
2022/01/26 08:39:17;;;;;;;72.20;38.28;;;;;;;17.85;69.89;98918.22;4780353;29;20086;-65
2022/01/26 08:41:58;;;;;;;90.57;46.78;;;;;;;17.95;74.84;98911.59;4778952;29;20438;-66
2022/01/26 08:44:48;;;;;;;99.53;49.83;;;;;;;17.97;73.73;98919.28;4777981;29;20062;-64
2022/01/26 08:47:29;;;;;;;89.22;47.95;;;;;;;17.77;72.62;98911.75;4780686;29;20051;-65
2022/01/26 08:50:12;;;;;;;104.53;51.25;;;;;;;17.75;74.70;98901.41;4792359;29;20418;-65
2022/01/26 08:53:02;;;;;;;123.55;63.67;;;;;;;17.76;80.63;98899.66;4783623;29;20051;-65
2022/01/26 08:55:51;;;;;;;131.68;67.60;;;;;;;17.54;83.22;98900.81;4776787;29;20066;-65
2022/01/26 08:58:32;;;;;;;124.40;62.35;;;;;;;17.43;83.02;98902.31;4778978;29;20066;-65
2022/01/26 09:01:21;;;;;;;121.28;59.97;;;;;;;17.51;84.00;98894.91;4779923;29;20377;-65
2022/01/26 09:04:03;;;;;;;120.10;58.15;;;;;;;17.53;88.01;98882.66;4780432;29;20058;-65
2022/01/26 09:06:56;;;;;;;97.20;49.13;;;;;;;17.49;81.83;98895.00;4779977;29;20147;-66
2022/01/26 09:09:43;;;;;;;81.43;43.42;;;;;;;17.35;80.07;98889.69;4766474;29;20561;-65
2022/01/26 09:12:37;;;;;;;80.75;43.72;;;;;;;17.31;80.18;98892.56;4778645;29;20713;-65
2022/01/26 09:15:19;;;;;;;80.10;39.80;;;;;;;17.25;76.88;98895.47;4776490;29;20053;-65
2022/01/26 09:18:14;;;;;;;72.43;38.75;;;;;;;17.31;79.87;98897.78;4769282;29;20098;-64
2022/01/26 09:20:55;;;;;;;77.38;43.53;;;;;;;17.32;81.04;98895.06;4782239;29;20503;-64
2022/01/26 09:23:43;;;;;;;76.60;41.03;;;;;;;17.18;79.76;98887.16;4777706;29;20055;-64
2022/01/26 09:26:25;;;;;;;98.15;50.03;;;;;;;17.20;80.88;98893.97;4781004;29;20058;-64
2022/01/26 09:29:14;;;;;;;100.57;51.22;;;;;;;17.21;83.96;98887.84;4762738;29;20054;-65
2022/01/26 09:31:57;;;;;;;97.38;51.20;;;;;;;17.19;85.30;98881.88;4774212;30;20059;-64
2022/01/26 09:34:40;;;;;;;98.18;52.17;;;;;;;17.16;87.46;98882.03;4780570;30;20063;-65
2022/01/26 09:37:28;;;;;;;108.90;57.92;;;;;;;16.99;87.56;98876.91;4777794;29;20059;-64
2022/01/26 09:40:10;;;;;;;110.28;55.95;;;;;;;16.95;90.13;98880.56;4774933;29;20055;-65
2022/01/26 09:43:00;;;;;;;113.90;59.63;;;;;;;16.91;89.85;98873.03;4780087;29;20085;-65
2022/01/26 09:45:41;;;;;;;107.13;58.15;;;;;;;17.00;90.63;98881.16;4782764;29;20072;-64
2022/01/26 09:48:38;;;;;;;106.97;55.75;;;;;;;17.08;90.81;98876.38;4781944;29;20458;-65
2022/01/26 09:51:15;;;;;;;110.78;58.75;;;;;;;16.93;91.26;98872.00;4771184;29;20767;-64
2022/01/26 09:54:17;;;;;;;110.00;62.10;;;;;;;16.79;89.82;98869.28;4783056;29;20376;-64
2022/01/26 09:56:53;;;;;;;104.63;59.85;;;;;;;16.80;93.59;98856.19;4778368;29;20545;-65
2022/01/26 09:59:41;;;;;;;112.88;60.92;;;;;;;16.90;94.47;98861.75;4780774;29;20059;-65
2022/01/26 10:02:36;;;;;;;120.00;61.22;;;;;;;16.71;93.32;98861.88;4766215;29;20047;-64
2022/01/26 10:05:24;;;;;;;111.25;61.42;;;;;;;16.68;94.62;98866.41;4780213;29;20136;-64
2022/01/26 10:08:13;;;;;;;108.05;58.75;;;;;;;16.58;93.92;98866.00;4781881;29;20074;-64
2022/01/26 10:17:28;;;;;;;99.82;56.63;;;;;;;16.67;95.70;98859.53;4778158;30;19944;-65
2022/01/26 10:20:19;;;;;;;156.05;72.38;;;;;;;16.65;99.41;98857.00;4781250;29;20059;-63
2022/01/26 10:23:08;;;;;;;152.15;76.63;;;;;;;16.44;100.00;98848.50;4782001;29;20059;-65
2022/01/26 10:26:14;;;;;;;150.13;77.65;;;;;;;16.30;100.00;98845.75;4778454;29;20054;-65
2022/01/26 10:28:59;;;;;;;142.05;72.55;;;;;;;16.23;100.00;98848.75;4781936;29;20054;-64
2022/01/26 10:31:48;;;;;;;156.73;76.43;;;;;;;16.19;100.00;98842.03;4778268;29;20143;-64
2022/01/26 10:34:30;;;;;;;156.13;78.30;;;;;;;16.16;100.00;98845.63;4776798;29;20051;-66
2022/01/26 10:37:17;;;;;;;160.38;77.72;;;;;;;16.00;100.00;98842.09;4770252;29;20052;-65
2022/01/26 10:40:23;;;;;;;169.35;80.57;;;;;;;16.09;100.00;98844.25;4778758;29;20055;-65
2022/01/26 10:43:10;;;;;;;157.55;82.68;;;;;;;16.09;100.00;98854.63;4781063;29;20089;-64
2022/01/26 10:46:05;;;;;;;167.43;80.60;;;;;;;16.06;100.00;98847.81;4777605;30;20137;-65
2022/01/26 10:49:05;;;;;;;166.88;78.82;;;;;;;16.02;100.00;98851.50;4775752;29;20066;-64
2022/01/26 10:52:02;;;;;;;170.35;77.05;;;;;;;16.10;100.00;98853.72;4775028;29;20062;-65
2022/01/26 10:54:50;;;;;;;154.70;76.25;;;;;;;16.04;100.00;98859.25;4762720;30;20051;-65
2022/01/26 10:57:38;;;;;;;164.90;78.70;;;;;;;15.93;100.00;98862.34;4759949;30;20059;-66
2022/01/26 11:00:21;;;;;;;165.63;78.18;;;;;;;15.97;100.00;98857.81;4741691;30;20135;-67
2022/01/26 11:03:11;;;;;;;175.55;78.43;;;;;;;15.99;100.00;98856.84;4422938;30;10000345;-65
2022/01/26 11:05:55;;;;;;;155.70;76.35;;;;;;;15.98;100.00;98860.34;4427640;30;10000084;-66
2022/01/26 11:08:47;;;;;;;155.93;73.85;;;;;;;15.95;100.00;98863.13;4755564;30;20058;-67
2022/01/26 11:11:39;;;;;;;150.43;68.38;;;;;;;15.92;100.00;98865.84;4744691;30;20059;-65
2022/01/26 11:14:22;;;;;;;148.68;71.32;;;;;;;15.90;100.00;98864.25;4740069;30;20056;-66
2022/01/26 11:17:13;;;;;;;150.88;70.40;;;;;;;15.87;100.00;98859.22;4760208;30;20059;-65
2022/01/26 11:19:57;;;;;;;138.50;68.10;;;;;;;15.82;100.00;98864.63;4759325;30;20062;-68
2022/01/26 11:23:02;;;;;;;132.98;62.92;;;;;;;15.79;100.00;98856.16;4754646;30;20167;-67
2022/01/26 11:25:51;;;;;;;139.02;62.65;;;;;;;15.77;100.00;98857.97;4742102;30;20056;-67
2022/01/26 11:28:34;;;;;;;139.63;64.07;;;;;;;15.73;100.00;98849.47;4759092;30;20063;-69
2022/01/26 11:31:33;;;;;;;138.90;63.30;;;;;;;15.64;100.00;98855.13;4753966;30;20067;-69
2022/01/26 11:34:21;;;;;;;121.32;59.97;;;;;;;15.61;100.00;98855.25;4738146;30;20059;-70
2022/01/26 11:37:13;;;;;;;115.00;55.38;;;;;;;15.62;100.00;98855.19;4733382;30;20875;-68
2022/01/26 11:46:17;;;;;;;85.40;45.38;;;;;;;15.47;100.00;98860.25;4752477;30;20067;-67
2022/01/26 11:49:16;;;;;;;100.40;47.35;;;;;;;15.33;100.00;98863.47;4757871;30;20074;-65
2022/01/26 11:52:12;;;;;;;85.30;42.53;;;;;;;15.35;100.00;98866.00;4735259;30;20064;-64
2022/01/26 11:55:09;;;;;;;71.78;38.28;;;;;;;15.22;100.00;98863.97;4760222;30;20087;-64
2022/01/26 11:58:00;;;;;;;67.63;35.95;;;;;;;15.17;100.00;98868.50;4775827;29;20051;-65
2022/01/26 12:00:51;;;;;;;67.78;33.22;;;;;;;15.08;100.00;98870.72;4773641;30;20063;-65
2022/01/26 12:03:42;;;;;;;62.90;32.75;;;;;;;15.05;100.00;98868.25;4772972;30;20057;-68
2022/01/26 12:06:39;;;;;;;67.68;32.38;;;;;;;15.15;100.00;98866.91;4772391;30;20057;-68
2022/01/26 12:09:21;;;;;;;75.72;33.08;;;;;;;15.14;100.00;98870.41;4775732;29;20052;-71
2022/01/26 12:12:17;;;;;;;67.20;31.67;;;;;;;14.91;100.00;98868.88;4756326;30;20061;-69
2022/01/26 12:15:18;;;;;;;69.50;32.65;;;;;;;14.70;100.00;98877.56;4777220;30;20068;-67
2022/01/26 12:43:01;;;;;;;72.60;34.85;;;;;;;14.07;100.00;98881.94;4719560;30;20061;-66
2022/01/26 12:45:56;;;;;;;76.68;37.30;;;;;;;13.87;100.00;98875.00;4720725;30;20822;-67
2022/01/26 12:48:48;;;;;;;82.47;36.78;;;;;;;13.79;100.00;98877.06;4770822;29;20066;-66
2022/01/26 12:51:42;;;;;;;75.80;37.95;;;;;;;13.71;100.00;98876.50;4776784;29;20062;-68
2022/01/26 12:54:26;;;;;;;90.20;36.20;;;;;;;13.62;100.00;98876.88;4778215;29;20151;-66
2022/01/26 12:57:20;;;;;;;89.38;37.67;;;;;;;13.39;100.00;98894.13;4780945;29;20062;-70
2022/01/26 13:00:04;;;;;;;93.50;38.05;;;;;;;13.29;100.00;98895.38;4774736;29;20055;-66
2022/01/26 13:02:59;;;;;;;95.60;36.97;;;;;;;13.35;100.00;98895.13;4780715;30;20055;-67
2022/01/26 13:05:35;;;;;;;78.45;36.58;;;;;;;13.31;100.00;98898.75;4777465;30;20516;-65
2022/01/26 13:08:23;;;;;;;74.93;36.80;;;;;;;13.24;100.00;98901.63;4764870;29;20054;-66
2022/01/26 13:11:12;;;;;;;95.93;38.88;;;;;;;13.13;100.00;98898.56;4771941;29;20055;-67
2022/01/26 13:14:10;;;;;;;92.70;36.97;;;;;;;13.07;100.00;98897.03;4780119;29;20075;-68
2022/01/26 13:17:32;;;;;;;80.70;37.70;;;;;;;12.98;100.00;98908.56;4778548;29;20055;-66
2022/01/26 13:23:55;;;;;;;102.45;45.75;;;;;;;12.93;100.00;98914.81;4735559;30;20739;-67
2022/01/26 13:26:55;;;;;;;103.93;46.67;;;;;;;12.92;100.00;98916.53;4756143;30;20418;-66
2022/01/26 13:33:27;;;;;;;128.85;50.88;;;;;;;12.77;100.00;98916.25;4737111;30;20064;-67
2022/01/26 13:36:38;;;;;;;117.95;50.70;;;;;;;12.77;100.00;98927.41;4771174;30;20055;-67
2022/01/26 13:48:35;;;;;;;115.50;51.67;;;;;;;12.52;100.00;98926.59;4765983;30;20051;-67
2022/01/26 13:51:18;;;;;;;123.00;52.75;;;;;;;12.41;100.00;98932.09;4770498;29;20075;-67
2022/01/26 13:54:40;;;;;;;112.82;51.03;;;;;;;12.36;100.00;98936.59;4777904;29;20162;-67
2022/01/26 14:00:25;;;;;;;;;;;;;;;12.19;100.00;98944.03;4761335;30;20051;-67
2022/01/26 14:03:10;;;;;;;125.05;53.47;;;;;;;12.22;100.00;98938.75;4775773;30;19929;-68
2022/01/26 14:06:00;;;;;;;116.38;53.55;;;;;;;12.16;100.00;98934.63;4777761;29;20762;-68
2022/01/26 14:08:41;;;;;;;112.55;52.25;;;;;;;12.14;100.00;98935.56;4772527;29;20767;-66
2022/01/26 14:11:31;;;;;;;116.18;56.20;;;;;;;12.04;100.00;98936.78;4783919;29;20069;-67
2022/01/26 14:14:20;;;;;;;151.68;67.20;;;;;;;12.00;100.00;98940.34;4778753;29;20055;-67
2022/01/26 14:17:23;;;;;;;157.60;71.97;;;;;;;12.22;100.00;98949.94;4762825;29;20138;-65
2022/01/26 14:20:29;;;;;;;149.35;68.72;;;;;;;12.14;100.00;98938.16;4771622;29;20067;-67
2022/01/26 14:23:41;;;;;;;135.60;67.80;;;;;;;12.04;100.00;98953.13;4779860;29;20077;-67
2022/01/26 14:26:31;;;;;;;129.90;63.95;;;;;;;12.21;100.00;98955.16;4777048;29;20381;-68
2022/01/26 14:29:25;;;;;;;146.02;61.63;;;;;;;12.33;100.00;98956.50;4777179;29;20089;-67
2022/01/26 14:35:18;;;;;;;136.55;62.28;;;;;;;12.34;100.00;98963.34;4772748;29;20051;-72
2022/01/26 15:00:05;;;;;;;135.13;60.17;;;;;;;12.04;100.00;98985.84;4773913;29;20059;-65
2022/01/26 15:51:08;;;;;;;166.63;76.68;;;;;;;11.47;100.00;99033.09;4767371;29;20060;-66
2022/01/26 16:06:02;;;;;;;163.40;84.38;;;;;;;11.37;100.00;99041.97;4774469;29;20153;-66
2022/01/26 16:21:23;;;;;;;194.35;93.35;;;;;;;11.29;100.00;99062.81;4772339;29;20063;-66
2022/01/26 17:46:38;;;;;;;222.18;107.80;;;;;;;10.76;100.00;99065.91;4772056;29;20059;-67
2022/01/26 18:16:50;;;;;;;223.13;109.50;;;;;;;10.62;100.00;99049.06;4774283;29;20104;-64
2022/01/26 18:26:47;;;;;;;245.10;115.78;;;;;;;10.66;100.00;99042.09;4762364;30;20066;-65
2022/01/26 18:49:12;;;;;;;230.23;111.25;;;;;;;10.43;100.00;99029.78;4776336;29;20085;-65
2022/01/26 18:50:04;;;;;;;230.45;113.47;;;;;;;10.35;100.00;99024.81;4777150;29;20047;-66
2022/01/26 18:52:58;;;;;;;238.43;115.80;;;;;;;10.42;100.00;99024.66;4776977;29;20065;-65
2022/01/26 18:55:53;;;;;;;245.30;117.43;;;;;;;10.22;100.00;99027.69;4774194;30;20051;-68
2022/01/26 18:58:29;;;;;;;247.63;120.75;;;;;;;10.16;100.00;99033.81;4778865;29;20062;-67